• Join FlightAware (Why Join?)
  • Login
  • US Flag 
02:38PM EDT


 

Airport Tracker/Info


-or-


 

Live Flight TrackerFlight Track Log ✈ UAL1056 ✈ 05-Oct-2013 ✈ MMUN / CUN - KIAH

Flight Track Log - Related Links

Times and Time Zones

All times are in EDT time to prevent confusion due to time zone crossing. See the UAL1056 flight status page for this flight to view local times or setup timezone preferences in your user account.

Time Position Orientation Groundspeed Altitude Reporting Facility
EDT Latitude Longitude Course Direction KTS MPH feet Rate Location/Type
05:41PM 21.3633 -87.1588 270° West  Level Estimated
05:42PM 21.3120 -87.2569 241° Southwest  Level FlightAware Approximate
05:43PM 21.2607 -87.3550 241° Southwest  Level FlightAware Approximate
05:44PM 21.3434 -87.4241 270° West  Level Estimated
05:45PM 21.4261 -87.4932 263° West  Level Estimated
05:46PM 21.5088 -87.5625 270° West  Level Estimated
05:47PM 21.4443 -87.6514 232° Southwest  Level FlightAware Approximate
05:48PM 21.5275 -87.7199 270° West  Level Estimated
05:49PM 21.6107 -87.7885 270° West  Level Estimated
05:50PM 21.6939 -87.8571 270° West  Level Estimated
05:51PM 21.6307 -87.9471 233° Southwest  Level FlightAware Approximate
05:52PM 21.5674 -88.0370 233° Southwest  Level FlightAware Approximate
05:53PM 21.6517 -88.1040 260° West  Level Estimated
05:54PM 21.7359 -88.1712 269° West  Level Estimated
05:55PM 21.6836 -88.2689 240° Southwest  Level FlightAware Approximate
05:56PM 21.6311 -88.3665 240° Southwest  Level FlightAware Approximate
05:57PM 21.5786 -88.4641 240° Southwest  Level FlightAware Approximate
05:58PM 21.5261 -88.5617 240° Southwest  Level FlightAware Approximate
05:59PM 21.4735 -88.6591 240° Southwest  Level FlightAware Approximate
06:00PM 21.5605 -88.7219 337° Northwest  Level Estimated
06:01PM 21.5630 -88.8346 271° West  Level FlightAware Approximate
06:02PM 21.5654 -88.9473 271° West  Level FlightAware Approximate
06:03PM 21.5677 -89.0599 271° West  Level FlightAware Approximate
06:04PM 21.5700 -89.1726 271° West  Level FlightAware Approximate
06:05PM 21.5721 -89.2853 271° West  Level FlightAware Approximate
06:06PM 21.5742 -89.3980 271° West  Level FlightAware Approximate
06:07PM 21.6638 -89.4565 337° Northwest  Level Estimated
06:08PM 21.7525 -89.5144 329° Northwest  Level Estimated
06:09PM 21.8411 -89.5723 329° Northwest  Level Estimated
06:10PM 21.9363 -89.6347 329° Northwest  Level Estimated
06:11PM 22.0314 -89.6971 329° Northwest  Level Estimated
06:12PM 22.1213 -89.7562 329° Northwest  Level Estimated
06:13PM 22.2112 -89.8154 329° Northwest  Level Estimated
06:14PM 22.3011 -89.8746 329° Northwest  Level Estimated
06:15PM 22.3909 -89.9339 329° Northwest  Level Estimated
06:16PM 22.4807 -89.9933 329° Northwest  Level Estimated
06:17PM 22.5705 -90.0528 329° Northwest  Level Estimated
06:18PM 22.6603 -90.1123 329° Northwest  Level Estimated
06:19PM 22.7500 -90.1720 329° Northwest  Level Estimated
06:20PM 22.8398 -90.2317 328° Northwest  Level Estimated
06:21PM 22.9295 -90.2914 328° Northwest  Level Estimated
06:22PM 23.0192 -90.3513 328° Northwest  Level Estimated
06:23PM 23.1089 -90.4112 328° Northwest  Level Estimated
06:24PM 23.1985 -90.4713 328° Northwest  Level Estimated
06:25PM 23.2881 -90.5313 328° Northwest  Level Estimated
06:26PM 23.3777 -90.5915 328° Northwest  Level Estimated
06:27PM 23.4673 -90.6518 328° Northwest  Level Estimated
06:28PM 23.5568 -90.7122 328° Northwest  Level Estimated
06:29PM 23.6464 -90.7726 328° Northwest  Level Estimated
06:30PM 23.7359 -90.8331 328° Northwest  Level Estimated
06:31PM 23.8254 -90.8937 328° Northwest  Level Estimated
06:32PM 23.9148 -90.9544 328° Northwest  Level Estimated
06:33PM 24.0042 -91.0151 328° Northwest  Level Estimated
06:34PM 24.0937 -91.0760 328° Northwest  Level Estimated
06:35PM 24.1831 -91.1369 328° Northwest  Level Estimated
06:36PM 24.2724 -91.1979 328° Northwest  Level Estimated
06:37PM 24.3617 -91.2590 328° Northwest  Level Estimated
06:38PM 24.4511 -91.3202 328° Northwest  Level Estimated
06:39PM 24.5403 -91.3815 328° Northwest  Level Estimated
06:40PM 24.6296 -91.4429 328° Northwest  Level Estimated
06:41PM 24.7188 -91.5043 328° Northwest  Level Estimated
06:42PM 24.8081 -91.5658 328° Northwest  Level Estimated
06:43PM 24.8972 -91.6275 328° Northwest  Level Estimated
06:44PM 24.9864 -91.6892 328° Northwest  Level Estimated
06:45PM 25.0756 -91.7510 328° Northwest  Level Estimated
06:46PM 25.1647 -91.8129 328° Northwest  Level Estimated
06:47PM 25.2537 -91.8749 328° Northwest  Level Estimated
06:48PM 25.3428 -91.9370 328° Northwest  Level Estimated
06:49PM 25.4318 -91.9992 328° Northwest  Level Estimated
06:50PM 25.5208 -92.0614 328° Northwest  Level Estimated
06:51PM 25.6098 -92.1238 328° Northwest  Level Estimated
06:52PM 25.6988 -92.1862 328° Northwest  Level Estimated
06:53PM 25.7877 -92.2487 328° Northwest  Level Estimated
06:53PM 26.7908 -92.8372 328° Northwest 459 528 36,000  Level Houston Center
06:54PM 25.8766 -92.3114 328° Northwest  Level Estimated
06:54PM 26.9111 -92.8944 337° Northwest 466 536 36,000  Level Houston Center
06:55PM 25.9655 -92.3741 328° Northwest  Level Estimated
06:55PM 27.0581 -92.9394 345° North 465 535 36,000  Level Houston Center
06:56PM 26.0595 -92.4406 328° Northwest  Level Estimated
06:56PM 27.1817 -92.9853 342° North 466 536 36,000  Level Houston Center
06:57PM 26.1534 -92.5071 328° Northwest  Level Estimated
06:57PM 27.3064 -93.0331 341° North 467 537 36,000  Level Houston Center
06:58PM 26.2474 -92.5738 328° Northwest  Level Estimated
06:58PM 27.4292 -93.0817 341° North 467 537 35,900  Level Houston Center
06:59PM 27.5522 -93.1297 341° North 468 539 36,000  Climbing Houston Center
07:00PM 27.6764 -93.1744 342° North 467 537 36,000  Level Houston Center
07:01PM 27.8000 -93.2228 341° North 469 540 36,000  Level Houston Center
07:02PM 27.9208 -93.2683 342° North 469 540 36,000  Level Houston Center
07:03PM 28.0431 -93.3169 341° North 465 535 36,000  Level Houston Center
07:04PM 28.1903 -93.3736 341° North 469 540 36,000  Level Houston Center
07:05PM 28.3131 -93.4219 341° North 469 540 36,000  Level Houston Center
07:06PM 28.4367 -93.4703 341° North 469 540 36,000  Level Houston Center
07:07PM 28.5600 -93.5181 341° North 470 541 36,000  Level Houston Center
07:08PM 28.6844 -93.5644 342° North 472 543 36,000 -420 Level Houston Center
07:09PM 28.8081 -93.6133 341° North 470 541 35,200 -2,640 Descending Houston Center
07:10PM 28.9161 -93.7006 325° Northwest 468 539 30,700 -3,840 Descending Houston Center
07:11PM 29.0100 -93.7978 318° Northwest 458 527 27,400 -3,420 Descending Houston Center
07:12PM 29.1108 -93.9036 317° Northwest 433 498 23,800 -2,760 Descending Houston Center
07:13PM 29.1942 -93.9894 318° Northwest 412 474 21,800 -1,920 Descending Houston Center
07:14PM 29.2678 -94.0664 318° Northwest 374 430 19,900 -2,040 Descending Houston Center
07:16PM 29.3656 -94.1703 317° Northwest 347 399 17,300 -2,040 Descending Houston Center
07:16PM 29.3864 -94.1914 319° Northwest 353 406 16,800 -1,500 Descending Houston Center
07:16PM 29.4119 -94.2175 318° Northwest 354 407 16,100 -1,980 Descending Houston Center
07:17PM 29.4594 -94.2683 317° Northwest 352 405 14,800 -1,980 Descending Houston Center
07:17PM 29.4833 -94.2917 320° Northwest 350 403 14,100 -1,800 Descending Houston Center
07:18PM 29.5300 -94.3433 316° Northwest 344 396 13,000 -1,080 Descending Houston Center
07:19PM 29.5481 -94.3719 306° West 345 397 13,000 -1,020 Level Houston Center
07:19PM 29.5783 -94.4500 294° West 336 387 11,900 -1,020 Descending Houston Center
07:20PM 29.5936 -94.4850 297° West 333 383 12,000 -540 Climbing Houston Center
07:20PM 29.6164 -94.5389 296° West 299 344 11,400 -1,200 Descending Houston Center
07:21PM 29.6306 -94.5714 297° West 310 357 10,800 -1,680 Descending Houston Center
07:21PM 29.6522 -94.6233 296° West 295 339 9,700 -1,620 Descending Houston Center
07:22PM 29.6678 -94.6544 300° West 299 344 9,200 -1,440 Descending Houston Center
07:22PM 29.7117 -94.6950 321° Northwest 287 330 8,100 -1,380 Descending Houston Center
07:23PM 29.7322 -94.7094 329° Northwest 297 342 7,800 -1,500 Descending Houston Center
07:23PM 29.7800 -94.7514 323° Northwest 285 328 6,600 -1,380 Descending Houston Center
07:24PM 29.7958 -94.7636 326° Northwest 289 333 6,400 -840 Descending Houston Center
07:24PM 29.8394 -94.8017 323° Northwest 261 300 5,800 -720 Descending Houston Center
07:25PM 29.8525 -94.8128 324° Northwest 267 307 5,700 -1,140 Descending Houston Center
07:25PM 29.8919 -94.8458 324° Northwest 218 251 4,700 -1,260 Descending Houston Center
07:26PM 29.9044 -94.8547 328° Northwest 238 274 4,400 -720 Descending Houston Center
07:26PM 29.9422 -94.8878 323° Northwest 222 255 4,000 -420 Descending Houston Center
07:27PM 29.9644 -94.9050 326° Northwest 227 261 4,000  Level Houston Center
07:27PM 29.9753 -94.9486 286° West 228 262 4,000  Level Houston Center
07:28PM 29.9789 -94.9739 279° West 230 265 4,000  Level Houston Center
07:28PM 29.9761 -95.0233 266° West 227 261 4,000  Level Houston Center
07:29PM 29.9769 -95.0478 272° West 231 266 4,000 -540 Level Houston Center
07:29PM 29.9764 -95.0933 269° West 225 259 3,500 -1,020 Descending Houston Center
07:30PM 29.9778 -95.1175 274° West 224 258 3,000 -1,140 Descending Houston Center
07:30PM 29.9781 -95.1558 270° West 201 231 2,500 -1,020 Descending Houston Center
07:31PM 29.9786 -95.1814 271° West 209 241 2,000 -1,020 Descending Houston Center
07:31PM 29.9764 -95.2283 267° West 162 186 1,300 -900 Descending Houston Center
07:32PM 29.9775 -95.2375 278° West 193 222 1,100 -840 Descending Houston Center
07:33PM 29.9767 -95.2789 269° West 163 188 500 -900 Descending Houston Center
07:33PM 29.9783 -95.2986 276° West 172 198 200 -840 Descending Houston Center